createdAt,value
2018-12-16T00:02:22.194Z,9.06
2018-12-16T00:08:17.177Z,10.76
2018-12-16T00:14:12.227Z,11.45
2018-12-16T00:20:07.191Z,10.48
2018-12-16T00:26:02.219Z,9.69
2018-12-16T00:31:57.213Z,7.63
2018-12-16T00:37:52.195Z,6.9
2018-12-16T00:43:47.216Z,6.13
2018-12-16T00:49:42.234Z,5.4
2018-12-16T00:55:37.225Z,4.52
2018-12-16T01:01:32.229Z,4.3
2018-12-16T01:07:27.214Z,4.67
2018-12-16T01:13:22.207Z,6.23
2018-12-16T01:19:17.201Z,7.11
2018-12-16T01:25:12.219Z,8.65
2018-12-16T01:31:07.242Z,11.6
2018-12-16T01:37:02.261Z,7.38
2018-12-16T01:42:57.240Z,8.21
2018-12-16T01:48:52.237Z,5.78
2018-12-16T01:54:47.277Z,5.23
2018-12-16T02:00:42.239Z,5.68
2018-12-16T02:06:37.231Z,6.31
2018-12-16T02:12:32.298Z,4.93
2018-12-16T02:18:27.275Z,5.31
2018-12-16T02:24:22.236Z,6.28
2018-12-16T02:30:17.271Z,5.45
2018-12-16T02:36:12.305Z,6.31
2018-12-16T02:42:07.260Z,6.81
2018-12-16T02:48:02.274Z,8.02
2018-12-16T02:53:57.321Z,6.57
2018-12-16T02:59:52.274Z,10.56
2018-12-16T03:05:47.300Z,15.95
2018-12-16T03:11:42.280Z,7.39
2018-12-16T03:17:37.282Z,7.87
2018-12-16T03:23:32.287Z,7.49
2018-12-16T03:29:27.351Z,9.04
2018-12-16T03:35:22.316Z,9.41
2018-12-16T03:41:17.308Z,10.12
2018-12-16T03:47:12.319Z,9.72
2018-12-16T03:53:07.305Z,9.96
2018-12-16T03:59:02.322Z,11.37
2018-12-16T04:04:57.314Z,10.85
2018-12-16T04:10:52.302Z,8.76
2018-12-16T04:16:47.313Z,8.27
2018-12-16T04:22:42.311Z,8.06
2018-12-16T04:28:37.323Z,12.58
2018-12-16T04:34:32.335Z,8.1
2018-12-16T04:40:27.330Z,6.33
2018-12-16T04:46:22.334Z,6.08
2018-12-16T04:52:17.335Z,13.17
2018-12-16T04:58:12.352Z,13.11
2018-12-16T05:04:07.346Z,12.76
2018-12-16T05:10:02.366Z,13.8
2018-12-16T05:15:57.361Z,14.43
2018-12-16T05:21:52.348Z,15.73
2018-12-16T05:27:47.352Z,14.11
2018-12-16T05:33:42.393Z,12.8
2018-12-16T05:39:37.344Z,15.77
2018-12-16T05:45:32.352Z,0
2018-12-16T05:51:27.370Z,17.46
2018-12-16T05:57:22.365Z,0
2018-12-16T06:03:17.395Z,12.35
2018-12-16T06:09:12.363Z,13.27
2018-12-16T06:15:07.371Z,13.29
2018-12-16T06:21:02.376Z,10.23
2018-12-16T06:26:57.382Z,9.34
2018-12-16T06:32:52.375Z,7.09
2018-12-16T06:38:47.413Z,6.36
2018-12-16T06:44:42.385Z,10.93
2018-12-16T06:50:37.414Z,7.93
2018-12-16T06:56:32.388Z,11.32
2018-12-16T07:02:27.399Z,10.76
2018-12-16T07:08:22.404Z,7.65
2018-12-16T07:14:17.397Z,8.78
2018-12-16T07:20:12.403Z,10.37
2018-12-16T07:26:07.397Z,16.38
2018-12-16T07:32:02.415Z,13.39
2018-12-16T07:37:57.420Z,12.86
2018-12-16T07:43:52.418Z,14.37
2018-12-16T07:49:47.426Z,13.2
2018-12-16T07:55:42.418Z,12.98
2018-12-16T08:01:37.505Z,13.17
2018-12-16T08:07:32.414Z,13.84
2018-12-16T08:13:27.413Z,13.85
2018-12-16T08:19:22.420Z,14.17
2018-12-16T08:25:17.423Z,14.04
2018-12-16T08:31:12.496Z,14.74
2018-12-16T08:37:07.440Z,14.33
2018-12-16T08:43:02.447Z,15.11
2018-12-16T08:48:57.456Z,15.53
2018-12-16T08:54:52.465Z,14.72
2018-12-16T09:00:47.480Z,13.47
2018-12-16T09:06:42.545Z,15.63
2018-12-16T09:12:37.457Z,14.69
2018-12-16T09:18:32.449Z,14.59
2018-12-16T09:24:27.484Z,15.42
2018-12-16T09:30:22.548Z,17.02
2018-12-16T09:36:17.448Z,16.16
2018-12-16T09:42:12.469Z,14.86
2018-12-16T09:48:07.484Z,15.23
2018-12-16T09:54:02.517Z,15.88
2018-12-16T09:59:57.514Z,17.67
2018-12-16T10:05:52.493Z,19.46
2018-12-16T10:11:47.511Z,21.93
2018-12-16T10:17:42.499Z,20.42
2018-12-16T10:23:37.485Z,18.38
2018-12-16T10:29:32.484Z,16.17
2018-12-16T10:35:27.501Z,18.73
2018-12-16T10:41:22.485Z,16.94
2018-12-16T10:47:17.519Z,18.51
2018-12-16T10:53:12.501Z,269.37
2018-12-16T10:59:07.578Z,133.83
2018-12-16T11:05:02.535Z,120.29
2018-12-16T11:10:57.513Z,31.6
2018-12-16T11:16:52.549Z,24.55
2018-12-16T11:22:47.521Z,23.28
2018-12-16T11:28:42.526Z,22.6
2018-12-16T11:34:37.580Z,24.13
2018-12-16T11:40:32.539Z,24.11
2018-12-16T11:46:27.541Z,23.57
2018-12-16T11:52:22.549Z,26.07
2018-12-16T11:58:17.561Z,21.94
2018-12-16T12:04:12.547Z,23.53
2018-12-16T12:10:07.530Z,22.35
2018-12-16T12:16:02.584Z,24.27
2018-12-16T12:22:04.222Z,22.5
2018-12-16T12:27:52.556Z,20.31
2018-12-16T12:33:47.579Z,20.36
2018-12-16T12:39:42.578Z,18.6
2018-12-16T12:45:37.565Z,25.17
2018-12-16T12:51:32.558Z,29.2
2018-12-16T12:57:27.555Z,26.86
2018-12-16T13:03:22.562Z,30.66
2018-12-16T13:09:17.577Z,25.86
2018-12-16T13:15:12.578Z,25.11
2018-12-16T13:21:07.558Z,23.25
2018-12-16T13:27:02.579Z,27.17
2018-12-16T13:32:57.588Z,30.57
2018-12-16T13:38:52.616Z,31.01
2018-12-16T13:44:47.586Z,30.17
2018-12-16T13:50:42.616Z,33.76
2018-12-16T13:56:37.584Z,37.07
2018-12-16T14:02:32.592Z,36.1
2018-12-16T14:08:27.607Z,34.77
2018-12-16T14:14:22.612Z,32.43
2018-12-16T14:20:17.616Z,35.52
2018-12-16T14:26:12.635Z,36.95
2018-12-16T14:32:07.615Z,38.02
2018-12-16T14:38:02.630Z,36.91
2018-12-16T14:43:57.626Z,37.45
2018-12-16T14:49:52.617Z,36.92
2018-12-16T14:55:47.645Z,35.75
2018-12-16T15:01:42.659Z,38.27
2018-12-16T15:07:37.656Z,36.79
2018-12-16T15:13:32.682Z,40.52
2018-12-16T15:19:27.649Z,48.16
2018-12-16T15:25:22.655Z,42.67
2018-12-16T15:31:17.637Z,43.6
2018-12-16T15:37:12.654Z,50.4
2018-12-16T15:43:07.660Z,44.31
2018-12-16T15:49:02.703Z,38.28
2018-12-16T15:54:57.658Z,40.89
2018-12-16T16:00:52.674Z,41.24
2018-12-16T16:06:47.666Z,44.62
2018-12-16T16:12:42.716Z,63.83
2018-12-16T16:18:37.686Z,61.27
2018-12-16T16:24:32.679Z,55.87
2018-12-16T16:30:27.665Z,53.66
2018-12-16T16:36:22.681Z,47.04
2018-12-16T16:42:17.699Z,44.91
2018-12-16T16:48:12.698Z,53.47
2018-12-16T16:54:07.716Z,64.83
2018-12-16T17:00:02.676Z,48.39
2018-12-16T17:05:57.689Z,47
2018-12-16T17:11:52.746Z,41.59
2018-12-16T17:17:47.723Z,47.19
2018-12-16T17:23:42.738Z,46.47
2018-12-16T17:29:37.698Z,43.07
2018-12-16T17:35:32.715Z,43.56
2018-12-16T17:41:27.702Z,43.3
2018-12-16T17:47:22.709Z,44.56
2018-12-16T17:53:17.714Z,44.9
2018-12-16T17:59:17.813Z,43.07
2018-12-16T18:05:07.750Z,45.61
2018-12-16T18:11:02.721Z,49.53
2018-12-16T18:16:57.760Z,49.09
2018-12-16T18:22:52.733Z,45.65
2018-12-16T18:28:47.740Z,44.04
2018-12-16T18:34:42.760Z,43.56
2018-12-16T18:40:37.741Z,41.83
2018-12-16T18:46:32.743Z,42.35
2018-12-16T18:52:27.795Z,41.87
2018-12-16T18:58:22.767Z,39.89
2018-12-16T19:04:17.758Z,42.29
2018-12-16T19:10:12.794Z,43.59
2018-12-16T19:16:07.773Z,43.5
2018-12-16T19:22:02.760Z,42.95
2018-12-16T19:27:57.764Z,40.83
2018-12-16T19:33:52.789Z,38.02
2018-12-16T19:39:47.779Z,35.96
2018-12-16T19:45:42.766Z,36.86
2018-12-16T19:51:37.791Z,31.73
2018-12-16T19:57:32.819Z,32.69
2018-12-16T20:03:27.803Z,31.89
2018-12-16T20:09:22.841Z,32.2
2018-12-16T20:15:17.782Z,33.31
2018-12-16T20:21:12.842Z,34.63
2018-12-16T20:27:11.917Z,32.66
2018-12-16T20:33:02.789Z,33.73
2018-12-16T20:38:57.801Z,33.2
2018-12-16T20:44:52.833Z,37.99
2018-12-16T20:50:47.818Z,36.28
2018-12-16T20:56:42.820Z,34.02
2018-12-16T21:02:37.835Z,33.68
2018-12-16T21:08:32.824Z,31.94
2018-12-16T21:14:27.803Z,32.94
2018-12-16T21:20:22.819Z,31.37
2018-12-16T21:26:17.838Z,30.86
2018-12-16T21:32:12.841Z,31.23
2018-12-16T21:38:07.881Z,31.2
2018-12-16T21:44:02.847Z,30.64
2018-12-16T21:49:57.880Z,30.82
2018-12-16T21:55:52.838Z,34.03
2018-12-16T22:01:47.838Z,32.4
2018-12-16T22:07:42.858Z,35.42
2018-12-16T22:13:37.863Z,34.19
2018-12-16T22:19:32.877Z,30.34
2018-12-16T22:25:27.849Z,26.02
2018-12-16T22:31:22.865Z,23.97
2018-12-16T22:37:17.859Z,18.42
2018-12-16T22:43:12.847Z,16.57
2018-12-16T22:49:07.861Z,15.91
2018-12-16T22:55:02.880Z,14.23
2018-12-16T23:00:57.882Z,15.31
2018-12-16T23:06:52.873Z,13.53
2018-12-16T23:12:47.890Z,12.68
2018-12-16T23:18:42.895Z,13.33
2018-12-16T23:24:37.896Z,14.25
2018-12-16T23:30:32.883Z,15.25
2018-12-16T23:36:27.881Z,14.42
2018-12-16T23:42:22.911Z,14.89
2018-12-16T23:48:17.903Z,13.78
2018-12-16T23:54:12.900Z,9.69
